createdAt,value
2022-12-25T00:00:51.120Z,100.00
2022-12-25T00:01:53.924Z,100.00
2022-12-25T00:02:57.254Z,100.00
2022-12-25T00:04:00.494Z,100.00
2022-12-25T00:05:02.505Z,100.00
2022-12-25T00:06:05.782Z,100.00
2022-12-25T00:07:07.579Z,100.00
2022-12-25T00:08:10.974Z,100.00
2022-12-25T00:09:13.019Z,100.00
2022-12-25T00:10:15.726Z,100.00
2022-12-25T00:11:19.616Z,100.00
2022-12-25T00:12:22.495Z,100.00
2022-12-25T00:13:24.286Z,100.00
2022-12-25T00:14:27.124Z,100.00
2022-12-25T00:15:29.037Z,100.00
2022-12-25T00:16:32.107Z,100.00
2022-12-25T00:17:34.000Z,100.00
2022-12-25T00:18:38.511Z,100.00
2022-12-25T00:19:40.342Z,100.00
2022-12-25T00:20:43.114Z,100.00
2022-12-25T00:21:44.920Z,100.00
2022-12-25T00:22:47.636Z,100.00
2022-12-25T00:23:53.605Z,99.95
2022-12-25T00:24:56.364Z,100.00
2022-12-25T00:25:58.495Z,100.00
2022-12-25T00:27:01.254Z,100.00
2022-12-25T00:28:03.357Z,100.00
2022-12-25T00:29:06.104Z,100.00
2022-12-25T00:30:09.477Z,99.93
2022-12-25T00:31:14.594Z,99.87
2022-12-25T00:32:16.500Z,100.00
2022-12-25T00:33:19.758Z,100.00
2022-12-25T00:34:22.937Z,100.00
2022-12-25T00:35:25.627Z,100.00
2022-12-25T00:36:27.820Z,100.00
2022-12-25T00:37:30.943Z,100.00
2022-12-25T00:38:35.737Z,100.00
2022-12-25T00:39:38.654Z,100.00
2022-12-25T00:40:44.282Z,100.00
2022-12-25T00:42:04.539Z,100.00
2022-12-25T00:43:07.319Z,100.00
2022-12-25T00:44:10.781Z,100.00
2022-12-25T00:45:15.817Z,100.00
2022-12-25T00:46:17.865Z,100.00
2022-12-25T00:47:21.126Z,100.00
2022-12-25T00:48:23.151Z,100.00
2022-12-25T00:49:27.307Z,100.00
2022-12-25T00:50:29.534Z,100.00
2022-12-25T00:51:32.952Z,100.00
2022-12-25T00:52:34.768Z,100.00
2022-12-25T00:53:37.576Z,100.00
2022-12-25T00:54:39.518Z,100.00
2022-12-25T00:55:42.273Z,100.00
2022-12-25T00:56:44.809Z,100.00
2022-12-25T00:57:47.519Z,100.00
2022-12-25T00:58:49.383Z,100.00
2022-12-25T00:59:53.252Z,100.00
2022-12-25T01:00:56.174Z,100.00
2022-12-25T01:02:19.887Z,100.00
2022-12-25T01:03:22.090Z,100.00
2022-12-25T01:04:25.363Z,100.00
2022-12-25T01:05:28.510Z,100.00
2022-12-25T01:06:31.744Z,100.00
2022-12-25T01:07:33.553Z,100.00
2022-12-25T01:08:38.759Z,100.00
2022-12-25T01:09:59.296Z,100.00
2022-12-25T01:11:02.718Z,100.00
2022-12-25T01:12:04.630Z,100.00
2022-12-25T01:13:08.110Z,100.00
2022-12-25T01:14:10.340Z,100.00
2022-12-25T01:15:13.942Z,100.00
2022-12-25T01:16:16.451Z,100.00
2022-12-25T01:17:19.235Z,100.00
2022-12-25T01:18:23.509Z,100.00
2022-12-25T01:19:25.443Z,100.00
2022-12-25T01:20:29.659Z,100.00
2022-12-25T01:21:31.904Z,100.00
2022-12-25T01:22:34.730Z,100.00
2022-12-25T01:23:36.544Z,100.00
2022-12-25T01:24:39.291Z,100.00
2022-12-25T01:26:02.297Z,100.00
2022-12-25T01:27:05.996Z,100.00
2022-12-25T01:28:08.262Z,100.00
2022-12-25T01:29:11.460Z,100.00
2022-12-25T01:30:14.370Z,100.00
2022-12-25T01:31:19.326Z,100.00
2022-12-25T01:32:21.346Z,100.00
2022-12-25T01:33:24.121Z,100.00
2022-12-25T01:34:25.903Z,100.00
2022-12-25T01:35:30.094Z,100.00
2022-12-25T01:36:32.052Z,100.00
2022-12-25T01:37:34.839Z,100.00
2022-12-25T01:38:36.964Z,100.00
2022-12-25T01:39:39.758Z,100.00
2022-12-25T01:40:43.287Z,100.00
2022-12-25T01:41:46.213Z,100.00
2022-12-25T01:42:48.043Z,100.00
2022-12-25T01:44:05.925Z,100.00
2022-12-25T01:45:32.084Z,100.00
2022-12-25T01:46:35.843Z,100.00
2022-12-25T01:47:37.633Z,100.00
2022-12-25T01:48:40.767Z,100.00
2022-12-25T01:49:45.397Z,100.00
2022-12-25T01:50:55.569Z,100.00
2022-12-25T01:52:23.638Z,100.00
2022-12-25T01:53:27.711Z,100.00
2022-12-25T01:54:31.971Z,100.00
2022-12-25T01:55:35.541Z,100.00
2022-12-25T01:56:38.038Z,100.00
2022-12-25T01:57:41.691Z,100.00
2022-12-25T01:58:43.565Z,100.00
2022-12-25T01:59:47.162Z,100.00
2022-12-25T02:00:49.419Z,100.00
2022-12-25T02:01:52.556Z,100.00
2022-12-25T02:02:54.898Z,100.00
2022-12-25T02:04:02.263Z,100.00
2022-12-25T02:05:06.102Z,100.00
2022-12-25T02:06:10.511Z,100.00
2022-12-25T02:07:15.137Z,100.00
2022-12-25T02:08:20.195Z,100.00
2022-12-25T02:09:22.078Z,100.00
2022-12-25T02:10:25.040Z,100.00
2022-12-25T02:11:45.694Z,100.00
2022-12-25T02:12:48.780Z,100.00
2022-12-25T02:13:50.555Z,100.00
2022-12-25T02:15:04.870Z,100.00
2022-12-25T02:16:11.204Z,100.00
2022-12-25T02:17:20.565Z,100.00
2022-12-25T02:18:31.574Z,100.00
2022-12-25T02:19:47.883Z,100.00
2022-12-25T02:21:07.758Z,100.00
2022-12-25T02:22:16.834Z,100.00
2022-12-25T02:23:59.084Z,100.00
2022-12-25T02:25:09.322Z,100.00
2022-12-25T02:26:17.751Z,100.00
2022-12-25T02:27:29.059Z,100.00
2022-12-25T02:28:37.986Z,100.00
2022-12-25T02:29:48.346Z,100.00
2022-12-25T02:30:53.800Z,100.00
2022-12-25T02:31:59.532Z,100.00
2022-12-25T02:33:20.132Z,100.00
2022-12-25T02:34:28.879Z,100.00
2022-12-25T02:35:31.031Z,100.00
2022-12-25T02:36:39.168Z,100.00
2022-12-25T02:37:45.409Z,100.00
2022-12-25T02:39:04.596Z,100.00
2022-12-25T02:40:10.457Z,100.00
2022-12-25T02:41:15.314Z,100.00
2022-12-25T02:42:24.104Z,100.00
2022-12-25T02:43:47.918Z,100.00
2022-12-25T02:45:10.437Z,100.00
2022-12-25T02:46:32.771Z,100.00
2022-12-25T02:47:54.005Z,100.00
2022-12-25T02:49:17.288Z,100.00
2022-12-25T02:50:38.566Z,100.00
2022-12-25T02:52:01.943Z,100.00
2022-12-25T02:53:22.553Z,100.00
2022-12-25T02:54:46.693Z,100.00
2022-12-25T02:56:08.457Z,100.00
2022-12-25T02:57:30.703Z,100.00
2022-12-25T02:58:53.041Z,100.00
2022-12-25T03:00:16.451Z,100.00
2022-12-25T03:01:39.324Z,100.00
2022-12-25T03:03:01.264Z,100.00
2022-12-25T03:04:24.926Z,100.00
2022-12-25T03:05:45.586Z,100.00
2022-12-25T03:07:00.843Z,100.00
2022-12-25T03:08:04.957Z,100.00
2022-12-25T03:09:22.712Z,100.00
2022-12-25T03:10:56.254Z,100.00
2022-12-25T03:12:02.289Z,100.00
2022-12-25T03:13:26.711Z,100.00
2022-12-25T03:14:47.208Z,100.00
2022-12-25T03:16:09.106Z,100.00
2022-12-25T03:17:11.591Z,100.00
2022-12-25T03:18:16.414Z,100.00
2022-12-25T03:19:38.250Z,100.00
2022-12-25T03:20:59.048Z,100.00
2022-12-25T03:22:19.734Z,100.00
2022-12-25T03:23:41.986Z,100.00
2022-12-25T03:25:02.146Z,100.00
2022-12-25T03:26:23.055Z,100.00
2022-12-25T03:27:26.350Z,100.00
2022-12-25T03:28:28.129Z,100.00
2022-12-25T03:29:50.300Z,100.00
2022-12-25T03:31:14.651Z,100.00
2022-12-25T03:32:22.922Z,100.00
2022-12-25T03:33:46.255Z,100.00
2022-12-25T03:35:12.617Z,100.00
2022-12-25T03:36:21.718Z,100.00
2022-12-25T03:37:43.251Z,100.00
2022-12-25T03:39:08.149Z,100.00
2022-12-25T03:40:35.035Z,100.00
2022-12-25T03:41:59.641Z,100.00
2022-12-25T03:43:25.861Z,100.00
2022-12-25T03:45:01.769Z,100.00
2022-12-25T03:46:29.822Z,100.00
2022-12-25T03:47:48.980Z,100.00
2022-12-25T03:49:11.262Z,100.00
2022-12-25T03:50:35.408Z,100.00
2022-12-25T03:51:57.472Z,100.00
2022-12-25T03:53:20.114Z,100.00
2022-12-25T03:54:43.792Z,100.00
2022-12-25T03:56:00.595Z,100.00
2022-12-25T03:57:21.011Z,100.00
2022-12-25T03:58:43.915Z,100.00
2022-12-25T04:00:24.527Z,100.00
2022-12-25T04:01:46.079Z,100.00
2022-12-25T04:03:06.521Z,100.00
2022-12-25T04:04:26.821Z,100.00
2022-12-25T04:05:47.101Z,100.00
2022-12-25T04:07:07.700Z,100.00
2022-12-25T04:08:28.044Z,100.00
2022-12-25T04:09:53.736Z,100.00
2022-12-25T04:11:14.272Z,100.00
2022-12-25T04:12:34.997Z,100.00
2022-12-25T04:13:55.122Z,100.00
2022-12-25T04:15:23.755Z,100.00
2022-12-25T04:16:45.199Z,100.00
2022-12-25T04:18:06.005Z,100.00
2022-12-25T04:19:27.728Z,100.00
2022-12-25T04:20:48.224Z,100.00
2022-12-25T04:22:17.358Z,100.00
2022-12-25T04:23:38.037Z,100.00
2022-12-25T04:25:00.798Z,100.00
2022-12-25T04:26:21.395Z,100.00
2022-12-25T04:27:41.649Z,100.00
2022-12-25T04:29:01.919Z,100.00
2022-12-25T04:30:23.100Z,100.00
2022-12-25T04:31:43.829Z,100.00
2022-12-25T04:33:05.331Z,100.00
2022-12-25T04:34:25.540Z,100.00
2022-12-25T04:35:45.847Z,100.00
2022-12-25T04:36:49.031Z,100.00
2022-12-25T04:37:51.081Z,100.00
2022-12-25T04:38:53.877Z,100.00
2022-12-25T04:39:55.724Z,100.00
2022-12-25T04:40:58.491Z,100.00
2022-12-25T04:42:01.384Z,100.00
2022-12-25T04:43:04.241Z,100.00
2022-12-25T04:44:06.064Z,100.00
2022-12-25T04:45:10.094Z,100.00
2022-12-25T04:46:12.001Z,100.00
2022-12-25T04:47:14.795Z,100.00
2022-12-25T04:48:17.914Z,100.00
2022-12-25T04:49:20.746Z,100.00
2022-12-25T04:50:22.534Z,100.00
2022-12-25T04:51:26.638Z,100.00
2022-12-25T04:52:28.953Z,100.00
2022-12-25T04:53:31.705Z,100.00
2022-12-25T04:54:33.527Z,100.00
2022-12-25T04:55:36.321Z,100.00
2022-12-25T04:56:43.490Z,100.00
2022-12-25T04:57:48.608Z,100.00
2022-12-25T04:58:50.506Z,100.00
2022-12-25T04:59:53.359Z,100.00
2022-12-25T05:00:55.151Z,100.00
2022-12-25T05:01:58.117Z,100.00
2022-12-25T05:03:00.210Z,100.00
2022-12-25T05:04:04.736Z,100.00
2022-12-25T05:05:07.425Z,100.00
2022-12-25T05:06:10.244Z,100.00
2022-12-25T05:07:12.087Z,100.00
2022-12-25T05:08:15.155Z,100.00
2022-12-25T05:09:17.042Z,100.00
2022-12-25T05:10:20.031Z,100.00
2022-12-25T05:11:22.273Z,100.00
2022-12-25T05:12:25.101Z,100.00
2022-12-25T05:13:26.953Z,100.00
2022-12-25T05:14:30.022Z,100.00
2022-12-25T05:15:31.974Z,100.00
2022-12-25T05:16:34.813Z,100.00
2022-12-25T05:17:37.471Z,100.00
2022-12-25T05:18:40.227Z,100.00
2022-12-25T05:19:44.003Z,100.00
2022-12-25T05:20:52.942Z,100.00
2022-12-25T05:21:55.237Z,100.00
2022-12-25T05:22:57.988Z,100.00
2022-12-25T05:24:00.534Z,100.00
2022-12-25T05:25:03.707Z,100.00
2022-12-25T05:26:06.469Z,100.00
2022-12-25T05:27:09.285Z,100.00
2022-12-25T05:28:11.103Z,100.00
2022-12-25T05:29:13.822Z,100.00
2022-12-25T05:30:16.105Z,100.00
2022-12-25T05:31:19.294Z,100.00
2022-12-25T05:32:21.222Z,100.00
2022-12-25T05:33:24.492Z,100.00
2022-12-25T05:34:26.295Z,100.00
2022-12-25T05:35:30.384Z,100.00
2022-12-25T05:36:32.141Z,100.00
2022-12-25T05:37:34.927Z,100.00
2022-12-25T05:38:37.317Z,100.00
2022-12-25T05:39:40.373Z,100.00
2022-12-25T05:40:42.147Z,100.00
2022-12-25T05:41:44.929Z,100.00
2022-12-25T05:42:46.765Z,100.00
2022-12-25T05:43:49.551Z,100.00
2022-12-25T05:44:51.278Z,100.00
2022-12-25T05:45:54.159Z,100.00
2022-12-25T05:46:55.985Z,100.00
2022-12-25T05:47:58.808Z,100.00
2022-12-25T05:49:00.659Z,100.00
2022-12-25T05:50:03.504Z,100.00
2022-12-25T05:51:08.132Z,100.00
2022-12-25T05:52:11.091Z,100.00
2022-12-25T05:53:14.481Z,100.00
2022-12-25T05:54:17.877Z,100.00
2022-12-25T05:55:19.704Z,100.00
2022-12-25T05:56:22.477Z,100.00
2022-12-25T05:57:24.359Z,100.00
2022-12-25T05:58:27.179Z,100.00
2022-12-25T05:59:29.223Z,100.00
2022-12-25T06:00:32.169Z,100.00
2022-12-25T06:01:34.015Z,100.00
2022-12-25T06:02:37.416Z,100.00
2022-12-25T06:03:39.486Z,100.00
2022-12-25T06:04:42.510Z,100.00
2022-12-25T06:05:44.248Z,100.00
2022-12-25T06:06:48.356Z,100.00
2022-12-25T06:07:50.151Z,100.00
2022-12-25T06:08:54.649Z,100.00
2022-12-25T06:09:56.463Z,100.00
2022-12-25T06:10:59.223Z,100.00
2022-12-25T06:12:00.957Z,100.00
2022-12-25T06:13:03.744Z,100.00
2022-12-25T06:14:05.873Z,100.00
2022-12-25T06:15:10.008Z,100.00
2022-12-25T06:16:12.611Z,100.00
2022-12-25T06:17:15.480Z,100.00
2022-12-25T06:18:17.278Z,100.00
2022-12-25T06:19:20.062Z,100.00
2022-12-25T06:20:22.100Z,100.00
2022-12-25T06:21:25.059Z,100.00
2022-12-25T06:22:30.120Z,100.00
2022-12-25T06:23:33.199Z,100.00
2022-12-25T06:24:35.120Z,100.00
2022-12-25T06:25:40.036Z,100.00
2022-12-25T06:26:42.464Z,100.00
2022-12-25T06:27:45.247Z,100.00
2022-12-25T06:28:47.324Z,100.00
2022-12-25T06:29:50.508Z,100.00
2022-12-25T06:30:52.347Z,100.00
2022-12-25T06:31:57.410Z,100.00
2022-12-25T06:33:00.113Z,100.00
2022-12-25T06:34:02.902Z,100.00
2022-12-25T06:35:05.479Z,100.00
2022-12-25T06:36:08.973Z,100.00
2022-12-25T06:37:10.784Z,100.00
2022-12-25T06:38:14.842Z,100.00
2022-12-25T06:39:17.201Z,100.00
2022-12-25T06:40:20.248Z,100.00
2022-12-25T06:41:23.451Z,100.00
2022-12-25T06:42:26.252Z,100.00
2022-12-25T06:43:28.019Z,100.00
2022-12-25T06:44:30.752Z,100.00
2022-12-25T06:45:35.048Z,100.00
2022-12-25T06:46:38.043Z,100.00
2022-12-25T06:47:39.891Z,100.00
2022-12-25T06:48:47.846Z,100.00
2022-12-25T06:49:49.650Z,100.00
2022-12-25T06:50:52.367Z,100.00
2022-12-25T06:51:54.273Z,100.00
2022-12-25T06:52:57.441Z,100.00
2022-12-25T06:54:03.825Z,100.00
2022-12-25T06:55:07.646Z,100.00
2022-12-25T06:56:15.183Z,100.00
2022-12-25T06:57:18.869Z,100.00
2022-12-25T06:58:20.720Z,100.00
2022-12-25T06:59:23.492Z,100.00
2022-12-25T07:00:25.296Z,100.00
2022-12-25T07:01:30.667Z,100.00
2022-12-25T07:02:33.445Z,100.00
2022-12-25T07:03:36.268Z,100.00
2022-12-25T07:04:40.247Z,100.00
2022-12-25T07:05:44.849Z,100.00
2022-12-25T07:06:46.748Z,100.00
2022-12-25T07:07:49.849Z,100.00
2022-12-25T07:08:51.614Z,100.00
2022-12-25T07:09:55.755Z,100.00
2022-12-25T07:10:57.559Z,100.00
2022-12-25T07:12:04.375Z,100.00
2022-12-25T07:13:06.248Z,100.00
2022-12-25T07:14:09.914Z,100.00
2022-12-25T07:15:11.700Z,100.00
2022-12-25T07:16:14.977Z,100.00
2022-12-25T07:17:17.726Z,100.00
2022-12-25T07:18:20.591Z,100.00
2022-12-25T07:19:22.637Z,100.00
2022-12-25T07:20:26.055Z,100.00
2022-12-25T07:21:27.811Z,100.00
2022-12-25T07:22:30.991Z,100.00
2022-12-25T07:23:32.973Z,100.00
2022-12-25T07:24:35.768Z,100.00
2022-12-25T07:25:38.963Z,100.00
2022-12-25T07:26:41.800Z,100.00
2022-12-25T07:27:43.592Z,100.00
2022-12-25T07:28:46.387Z,100.00
2022-12-25T07:29:48.193Z,100.00
2022-12-25T07:30:50.984Z,100.00
2022-12-25T07:31:53.920Z,100.00
2022-12-25T07:32:56.681Z,100.00
2022-12-25T07:33:59.572Z,100.00
2022-12-25T07:35:01.346Z,100.00
2022-12-25T07:36:05.422Z,100.00
2022-12-25T07:37:07.319Z,100.00
2022-12-25T07:38:10.173Z,100.00
2022-12-25T07:39:12.583Z,100.00
2022-12-25T07:40:15.619Z,100.00
2022-12-25T07:41:18.770Z,100.00
2022-12-25T07:42:25.144Z,100.00
2022-12-25T07:43:29.499Z,100.00
2022-12-25T07:44:32.260Z,100.00
2022-12-25T07:45:34.153Z,100.00
2022-12-25T07:46:36.891Z,100.00
2022-12-25T07:47:38.640Z,100.00
2022-12-25T07:48:41.461Z,100.00
2022-12-25T07:49:43.280Z,100.00
2022-12-25T07:50:46.040Z,100.00
2022-12-25T07:51:47.921Z,100.00
2022-12-25T07:52:50.677Z,100.00
2022-12-25T07:53:55.196Z,100.00
2022-12-25T07:54:57.011Z,100.00
2022-12-25T07:56:01.216Z,100.00
2022-12-25T07:57:04.412Z,100.00
2022-12-25T07:58:07.357Z,100.00
2022-12-25T07:59:09.228Z,100.00
2022-12-25T08:00:13.236Z,100.00
2022-12-25T08:01:34.921Z,100.00
2022-12-25T08:02:37.445Z,100.00
2022-12-25T08:03:40.723Z,100.00
2022-12-25T08:04:42.791Z,100.00
2022-12-25T08:05:45.716Z,100.00
2022-12-25T08:06:47.496Z,100.00
2022-12-25T08:07:57.323Z,100.00
2022-12-25T08:09:04.458Z,100.00
2022-12-25T08:10:08.239Z,100.00
2022-12-25T08:11:10.439Z,100.00
2022-12-25T08:12:14.916Z,100.00
2022-12-25T08:13:16.757Z,100.00
2022-12-25T08:14:19.519Z,100.00
2022-12-25T08:15:21.885Z,100.00
2022-12-25T08:16:24.768Z,100.00
2022-12-25T08:17:26.618Z,100.00
2022-12-25T08:18:30.639Z,100.00
2022-12-25T08:19:32.653Z,100.00
2022-12-25T08:20:35.638Z,100.00
2022-12-25T08:21:39.291Z,100.00
2022-12-25T08:22:41.102Z,100.00
2022-12-25T08:23:45.914Z,100.00
2022-12-25T08:24:47.740Z,100.00
2022-12-25T08:25:50.552Z,100.00
2022-12-25T08:26:53.364Z,100.00
2022-12-25T08:27:56.700Z,100.00
2022-12-25T08:28:59.456Z,100.00
2022-12-25T08:30:01.293Z,100.00
2022-12-25T08:31:11.409Z,100.00
2022-12-25T08:32:13.184Z,100.00
2022-12-25T08:33:15.936Z,100.00
2022-12-25T08:34:19.291Z,100.00
2022-12-25T08:35:22.113Z,100.00
2022-12-25T08:36:24.511Z,100.00
2022-12-25T08:37:27.299Z,100.00
2022-12-25T08:38:29.088Z,100.00
2022-12-25T08:39:31.837Z,100.00
2022-12-25T08:40:33.736Z,100.00
2022-12-25T08:41:37.099Z,100.00
2022-12-25T08:42:38.915Z,100.00
2022-12-25T08:43:44.245Z,100.00
2022-12-25T08:44:46.017Z,100.00
2022-12-25T08:45:49.109Z,100.00
2022-12-25T08:46:51.064Z,100.00
2022-12-25T08:47:54.975Z,100.00
2022-12-25T08:48:57.075Z,100.00
2022-12-25T08:49:59.864Z,100.00
2022-12-25T08:51:02.299Z,100.00
2022-12-25T08:52:05.271Z,100.00
2022-12-25T08:53:07.077Z,100.00
2022-12-25T08:54:09.992Z,100.00
2022-12-25T08:55:12.043Z,100.00
2022-12-25T08:56:15.740Z,100.00
2022-12-25T08:57:17.607Z,100.00
2022-12-25T08:58:20.348Z,100.00
2022-12-25T08:59:24.915Z,100.00
2022-12-25T09:00:26.699Z,100.00
2022-12-25T09:01:29.573Z,100.00
2022-12-25T09:02:32.987Z,100.00
2022-12-25T09:03:35.006Z,100.00
2022-12-25T09:04:37.780Z,100.00
2022-12-25T09:05:39.726Z,100.00
2022-12-25T09:06:42.571Z,100.00
2022-12-25T09:07:44.499Z,100.00
2022-12-25T09:08:49.596Z,100.00
2022-12-25T09:09:52.324Z,100.00
2022-12-25T09:10:55.219Z,100.00
2022-12-25T09:11:57.102Z,100.00
2022-12-25T09:12:59.963Z,100.00
2022-12-25T09:14:02.840Z,100.00
2022-12-25T09:15:07.195Z,100.00
2022-12-25T09:16:11.877Z,100.00
2022-12-25T09:17:13.780Z,100.00
2022-12-25T09:18:16.541Z,100.00
2022-12-25T09:19:18.330Z,100.00
2022-12-25T09:20:21.255Z,100.00
2022-12-25T09:21:23.120Z,100.00
2022-12-25T09:22:25.882Z,100.00
2022-12-25T09:23:28.632Z,100.00
2022-12-25T09:24:31.478Z,100.00
2022-12-25T09:25:33.381Z,100.00
2022-12-25T09:26:36.116Z,100.00
2022-12-25T09:27:37.942Z,100.00
2022-12-25T09:28:46.580Z,100.00
2022-12-25T09:29:53.278Z,100.00
2022-12-25T09:30:56.556Z,100.00
2022-12-25T09:31:59.323Z,100.00
2022-12-25T09:33:01.091Z,100.00
2022-12-25T09:34:04.151Z,100.00
2022-12-25T09:35:06.565Z,100.00
2022-12-25T09:36:10.262Z,100.00
2022-12-25T09:37:12.035Z,100.00
2022-12-25T09:38:14.853Z,100.00
2022-12-25T09:39:17.604Z,100.00
2022-12-25T09:40:23.121Z,100.00
2022-12-25T09:41:30.471Z,100.00
2022-12-25T09:42:34.391Z,100.00
2022-12-25T09:43:41.028Z,100.00
2022-12-25T09:44:46.218Z,100.00
2022-12-25T09:45:48.098Z,100.00
2022-12-25T09:47:14.738Z,100.00
2022-12-25T09:48:16.622Z,100.00
2022-12-25T09:49:22.857Z,100.00
2022-12-25T09:50:32.422Z,100.00
2022-12-25T09:51:39.037Z,100.00
2022-12-25T09:52:44.200Z,100.00
2022-12-25T09:53:52.816Z,100.00
2022-12-25T09:54:57.802Z,100.00
2022-12-25T09:56:05.961Z,100.00
2022-12-25T09:57:11.152Z,100.00
2022-12-25T09:58:15.737Z,100.00
2022-12-25T09:59:24.143Z,100.00
2022-12-25T10:00:30.737Z,100.00
2022-12-25T10:01:37.630Z,100.00
2022-12-25T10:03:11.426Z,100.00
2022-12-25T10:04:29.411Z,100.00
2022-12-25T10:05:48.605Z,100.00
2022-12-25T10:07:02.691Z,100.00
2022-12-25T10:08:12.807Z,100.00
2022-12-25T10:09:36.267Z,100.00
2022-12-25T10:10:47.711Z,100.00
2022-12-25T10:12:06.182Z,100.00
2022-12-25T10:13:19.376Z,100.00
2022-12-25T10:14:25.961Z,100.00
2022-12-25T10:15:37.831Z,100.00
2022-12-25T10:16:48.984Z,100.00
2022-12-25T10:18:02.675Z,100.00
2022-12-25T10:19:14.585Z,100.00
2022-12-25T10:20:23.742Z,100.00
2022-12-25T10:21:27.969Z,100.00
2022-12-25T10:22:34.719Z,100.00
2022-12-25T10:23:39.354Z,100.00
2022-12-25T10:24:46.739Z,100.00
2022-12-25T10:25:49.508Z,100.00
2022-12-25T10:26:51.957Z,100.00
2022-12-25T10:27:57.431Z,100.00
2022-12-25T10:29:04.242Z,100.00
2022-12-25T10:30:15.589Z,100.00
2022-12-25T10:31:22.620Z,100.00
2022-12-25T10:32:24.558Z,100.00
2022-12-25T10:33:28.605Z,100.00
2022-12-25T10:34:32.614Z,100.00
2022-12-25T10:35:35.400Z,100.00
2022-12-25T10:36:37.229Z,100.00
2022-12-25T10:37:40.223Z,100.00
2022-12-25T10:38:42.007Z,100.00
2022-12-25T10:39:46.966Z,100.00
2022-12-25T10:41:00.195Z,100.00
2022-12-25T10:42:27.663Z,100.00
2022-12-25T10:43:32.876Z,100.00
2022-12-25T10:44:35.754Z,100.00
2022-12-25T10:45:45.185Z,100.00
2022-12-25T10:46:49.851Z,100.00
2022-12-25T10:48:07.155Z,100.00
2022-12-25T10:49:14.826Z,100.00
2022-12-25T10:50:24.196Z,100.00
2022-12-25T10:51:31.967Z,100.00
2022-12-25T10:52:33.819Z,100.00
2022-12-25T10:53:39.798Z,100.00
2022-12-25T10:54:41.613Z,100.00
2022-12-25T10:55:44.380Z,100.00
2022-12-25T10:56:54.314Z,100.00
2022-12-25T10:57:57.855Z,100.00
2022-12-25T10:59:07.069Z,100.00
2022-12-25T11:00:20.583Z,100.00
2022-12-25T11:01:28.867Z,100.00
2022-12-25T11:02:34.405Z,100.00
2022-12-25T11:03:40.135Z,100.00
2022-12-25T11:04:42.528Z,100.00
2022-12-25T11:05:51.236Z,100.00
2022-12-25T11:06:58.123Z,100.00
2022-12-25T11:08:02.326Z,100.00
2022-12-25T11:09:04.155Z,100.00
2022-12-25T11:10:21.747Z,100.00
2022-12-25T11:11:24.065Z,100.00
2022-12-25T11:12:30.719Z,100.00
2022-12-25T11:13:34.877Z,100.00
2022-12-25T11:14:38.376Z,100.00
2022-12-25T11:15:42.286Z,100.00
2022-12-25T11:16:45.861Z,100.00
2022-12-25T11:17:48.855Z,100.00
2022-12-25T11:18:53.539Z,100.00
2022-12-25T11:19:57.105Z,100.00
2022-12-25T11:21:03.120Z,100.00
2022-12-25T11:22:18.074Z,100.00
2022-12-25T11:23:21.878Z,100.00
2022-12-25T11:24:28.701Z,100.00
2022-12-25T11:25:30.489Z,100.00
2022-12-25T11:26:37.491Z,100.00
2022-12-25T11:27:39.308Z,100.00
2022-12-25T11:28:43.226Z,100.00
2022-12-25T11:29:48.307Z,100.00
2022-12-25T11:30:53.395Z,100.00
2022-12-25T11:31:58.151Z,100.00
2022-12-25T11:33:03.357Z,100.00
2022-12-25T11:34:07.854Z,100.00
2022-12-25T11:35:12.965Z,100.00
2022-12-25T11:36:21.602Z,100.00
2022-12-25T11:37:29.050Z,100.00
2022-12-25T11:38:32.205Z,100.00
2022-12-25T11:39:36.458Z,100.00
2022-12-25T11:40:43.897Z,100.00
2022-12-25T11:41:46.538Z,100.00
2022-12-25T11:42:51.385Z,100.00
2022-12-25T11:43:56.846Z,100.00
2022-12-25T11:45:03.673Z,100.00
2022-12-25T11:46:12.118Z,100.00
2022-12-25T11:47:18.863Z,100.00
2022-12-25T11:48:25.235Z,100.00
2022-12-25T11:49:28.626Z,100.00
2022-12-25T11:50:32.796Z,100.00
2022-12-25T11:51:40.179Z,100.00
2022-12-25T11:52:45.474Z,100.00
2022-12-25T11:53:51.705Z,100.00
2022-12-25T11:54:57.601Z,100.00
2022-12-25T11:56:02.858Z,100.00
2022-12-25T11:57:06.312Z,100.00
2022-12-25T11:58:15.273Z,100.00
2022-12-25T11:59:21.820Z,100.00
2022-12-25T12:00:24.816Z,100.00
2022-12-25T12:01:29.809Z,100.00
2022-12-25T12:02:36.573Z,100.00
2022-12-25T12:03:41.004Z,100.00
2022-12-25T12:04:45.321Z,100.00
2022-12-25T12:05:52.403Z,100.00
2022-12-25T12:06:57.905Z,100.00
2022-12-25T12:08:01.916Z,100.00
2022-12-25T12:09:23.821Z,100.00
2022-12-25T12:10:36.647Z,100.00
2022-12-25T12:11:41.507Z,100.00
2022-12-25T12:12:52.475Z,100.00
2022-12-25T12:14:03.375Z,100.00
2022-12-25T12:15:15.004Z,100.00
2022-12-25T12:16:17.869Z,100.00
2022-12-25T12:17:19.884Z,100.00
2022-12-25T12:18:24.166Z,99.88
2022-12-25T12:19:28.007Z,100.00
2022-12-25T12:20:33.295Z,99.84
2022-12-25T12:21:35.096Z,98.99
2022-12-25T12:22:39.314Z,98.28
2022-12-25T12:23:49.147Z,98.23
2022-12-25T12:24:56.174Z,98.41
2022-12-25T12:25:58.188Z,98.20
2022-12-25T12:27:02.601Z,97.38
2022-12-25T12:28:05.818Z,97.08
2022-12-25T12:29:09.772Z,96.82
2022-12-25T12:30:23.812Z,95.64
2022-12-25T12:31:37.963Z,95.26
2022-12-25T12:32:41.605Z,94.93
2022-12-25T12:33:51.727Z,94.82
2022-12-25T12:34:55.085Z,95.47
2022-12-25T12:35:58.532Z,95.73
2022-12-25T12:37:02.491Z,96.09
2022-12-25T12:38:08.804Z,95.37
2022-12-25T12:39:21.697Z,95.50
2022-12-25T12:40:28.495Z,95.21
2022-12-25T12:41:43.036Z,95.09
2022-12-25T12:42:50.726Z,95.78
2022-12-25T12:43:55.947Z,95.53
2022-12-25T12:45:07.645Z,95.47
2022-12-25T12:46:17.169Z,95.14
2022-12-25T12:47:30.293Z,94.59
2022-12-25T12:48:40.548Z,94.42
2022-12-25T12:49:42.440Z,94.23
2022-12-25T12:50:45.272Z,93.73
2022-12-25T12:51:47.930Z,93.09
2022-12-25T12:52:50.691Z,93.19
2022-12-25T12:54:06.757Z,92.62
2022-12-25T12:55:13.412Z,92.23
2022-12-25T12:56:18.905Z,92.64
2022-12-25T12:57:25.868Z,93.32
2022-12-25T12:58:33.080Z,93.38
2022-12-25T12:59:38.982Z,92.27
2022-12-25T13:00:47.931Z,91.59
2022-12-25T13:01:59.698Z,91.07
2022-12-25T13:03:13.760Z,90.56
2022-12-25T13:04:32.341Z,90.19
2022-12-25T13:05:40.351Z,90.30
2022-12-25T13:06:45.105Z,89.81
2022-12-25T13:07:54.916Z,89.42
2022-12-25T13:09:06.011Z,89.26
2022-12-25T13:10:15.079Z,88.87
2022-12-25T13:11:20.090Z,88.68
2022-12-25T13:12:23.498Z,87.61
2022-12-25T13:13:29.129Z,86.13
2022-12-25T13:14:32.080Z,86.02
2022-12-25T13:15:35.143Z,85.03
2022-12-25T13:16:40.216Z,83.76
2022-12-25T13:17:43.761Z,83.49
2022-12-25T13:18:47.042Z,81.81
2022-12-25T13:19:51.091Z,82.46
2022-12-25T13:20:56.132Z,82.81
2022-12-25T13:21:59.144Z,82.50
2022-12-25T13:23:01.858Z,83.24
2022-12-25T13:24:08.964Z,83.36
2022-12-25T13:25:19.126Z,84.12
2022-12-25T13:26:20.893Z,83.81
2022-12-25T13:27:25.104Z,83.00
2022-12-25T13:28:28.365Z,82.34
2022-12-25T13:29:31.845Z,80.11
2022-12-25T13:30:34.181Z,80.85
2022-12-25T13:31:37.062Z,81.18
2022-12-25T13:32:38.921Z,81.49
2022-12-25T13:33:42.379Z,81.44
2022-12-25T13:34:44.556Z,81.08
2022-12-25T13:35:47.932Z,80.82
2022-12-25T13:36:49.832Z,79.80
2022-12-25T13:37:54.723Z,79.42
2022-12-25T13:38:57.965Z,79.43
2022-12-25T13:40:05.144Z,79.12
2022-12-25T13:41:25.311Z,78.77
2022-12-25T13:42:29.750Z,77.91
2022-12-25T13:43:31.658Z,78.59
2022-12-25T13:44:41.688Z,78.90
2022-12-25T13:45:55.396Z,79.18
2022-12-25T13:47:08.301Z,79.09
2022-12-25T13:48:15.975Z,77.96
2022-12-25T13:49:19.618Z,78.06
2022-12-25T13:50:24.739Z,77.81
2022-12-25T13:51:27.330Z,78.14
2022-12-25T13:52:34.341Z,78.01
2022-12-25T13:53:36.116Z,78.28
2022-12-25T13:54:38.952Z,77.90
2022-12-25T13:55:42.609Z,77.86